sensor_id;sensor_type;location;lat;lon;timestamp;temperature;humidity
44170;DHT22;29836;52.286;9.576;2023-07-09T00:02:19;20.50;93.80
44170;DHT22;29836;52.286;9.576;2023-07-09T00:04:45;20.40;94.10
44170;DHT22;29836;52.286;9.576;2023-07-09T00:07:23;20.50;93.70
44170;DHT22;29836;52.286;9.576;2023-07-09T00:09:50;20.60;93.50
44170;DHT22;29836;52.286;9.576;2023-07-09T00:12:17;20.60;93.10
44170;DHT22;29836;52.286;9.576;2023-07-09T00:14:43;20.70;93.20
44170;DHT22;29836;52.286;9.576;2023-07-09T00:17:30;20.70;92.80
44170;DHT22;29836;52.286;9.576;2023-07-09T00:19:56;20.80;91.90
44170;DHT22;29836;52.286;9.576;2023-07-09T00:22:22;20.90;92.10
44170;DHT22;29836;52.286;9.576;2023-07-09T00:24:50;20.90;92.20
44170;DHT22;29836;52.286;9.576;2023-07-09T00:27:18;20.90;92.00
44170;DHT22;29836;52.286;9.576;2023-07-09T00:29:44;20.80;91.80
44170;DHT22;29836;52.286;9.576;2023-07-09T00:32:15;20.70;92.30
44170;DHT22;29836;52.286;9.576;2023-07-09T00:34:42;20.60;93.20
44170;DHT22;29836;52.286;9.576;2023-07-09T00:37:11;20.50;93.70
44170;DHT22;29836;52.286;9.576;2023-07-09T00:39:37;20.40;93.40
44170;DHT22;29836;52.286;9.576;2023-07-09T00:42:02;20.30;93.10
44170;DHT22;29836;52.286;9.576;2023-07-09T00:44:30;20.30;93.20
44170;DHT22;29836;52.286;9.576;2023-07-09T00:49:33;20.20;92.60
44170;DHT22;29836;52.286;9.576;2023-07-09T00:52:03;20.30;92.10
44170;DHT22;29836;52.286;9.576;2023-07-09T00:54:33;20.40;92.10
44170;DHT22;29836;52.286;9.576;2023-07-09T00:57:06;20.30;92.30
44170;DHT22;29836;52.286;9.576;2023-07-09T00:59:34;20.40;92.80
44170;DHT22;29836;52.286;9.576;2023-07-09T01:02:00;20.30;93.40
44170;DHT22;29836;52.286;9.576;2023-07-09T01:04:27;20.20;94.40
44170;DHT22;29836;52.286;9.576;2023-07-09T01:06:54;20.10;95.30
44170;DHT22;29836;52.286;9.576;2023-07-09T01:09:22;19.90;95.80
44170;DHT22;29836;52.286;9.576;2023-07-09T01:11:48;19.80;96.50
44170;DHT22;29836;52.286;9.576;2023-07-09T01:14:15;19.70;97.00
44170;DHT22;29836;52.286;9.576;2023-07-09T01:16:49;19.60;97.50
44170;DHT22;29836;52.286;9.576;2023-07-09T01:19:23;19.50;97.70
44170;DHT22;29836;52.286;9.576;2023-07-09T01:21:54;19.50;97.90
44170;DHT22;29836;52.286;9.576;2023-07-09T01:24:59;19.40;98.00
44170;DHT22;29836;52.286;9.576;2023-07-09T01:27:30;19.40;97.90
44170;DHT22;29836;52.286;9.576;2023-07-09T01:29:57;19.40;97.80
44170;DHT22;29836;52.286;9.576;2023-07-09T01:32:24;19.40;97.80
44170;DHT22;29836;52.286;9.576;2023-07-09T01:34:55;19.40;97.80
44170;DHT22;29836;52.286;9.576;2023-07-09T01:37:24;19.40;97.90
44170;DHT22;29836;52.286;9.576;2023-07-09T01:39:51;19.40;98.00
44170;DHT22;29836;52.286;9.576;2023-07-09T01:42:18;19.40;97.90
44170;DHT22;29836;52.286;9.576;2023-07-09T01:44:47;19.40;97.60
44170;DHT22;29836;52.286;9.576;2023-07-09T01:47:13;19.30;97.50
44170;DHT22;29836;52.286;9.576;2023-07-09T01:49:38;19.30;97.50
44170;DHT22;29836;52.286;9.576;2023-07-09T01:52:05;19.40;96.90
44170;DHT22;29836;52.286;9.576;2023-07-09T01:54:33;19.50;96.60
44170;DHT22;29836;52.286;9.576;2023-07-09T01:57:22;19.50;96.70
44170;DHT22;29836;52.286;9.576;2023-07-09T01:59:52;19.50;97.00
44170;DHT22;29836;52.286;9.576;2023-07-09T02:02:19;19.40;96.90
44170;DHT22;29836;52.286;9.576;2023-07-09T02:04:53;19.40;97.10
44170;DHT22;29836;52.286;9.576;2023-07-09T02:07:20;19.40;96.60
44170;DHT22;29836;52.286;9.576;2023-07-09T02:09:47;19.40;96.40
44170;DHT22;29836;52.286;9.576;2023-07-09T02:12:14;19.40;96.80
44170;DHT22;29836;52.286;9.576;2023-07-09T02:14:41;19.40;97.60
44170;DHT22;29836;52.286;9.576;2023-07-09T02:17:08;19.30;97.60
44170;DHT22;29836;52.286;9.576;2023-07-09T02:19:34;19.20;98.20
44170;DHT22;29836;52.286;9.576;2023-07-09T02:22:00;19.00;98.40
44170;DHT22;29836;52.286;9.576;2023-07-09T02:24:25;18.90;99.10
44170;DHT22;29836;52.286;9.576;2023-07-09T02:26:53;18.70;99.90
44170;DHT22;29836;52.286;9.576;2023-07-09T02:29:18;18.60;99.90
44170;DHT22;29836;52.286;9.576;2023-07-09T02:31:45;18.40;99.90
44170;DHT22;29836;52.286;9.576;2023-07-09T02:34:11;18.30;99.90
44170;DHT22;29836;52.286;9.576;2023-07-09T02:36:36;18.10;99.90
44170;DHT22;29836;52.286;9.576;2023-07-09T02:39:02;18.00;99.90
44170;DHT22;29836;52.286;9.576;2023-07-09T02:41:28;17.90;99.90
44170;DHT22;29836;52.286;9.576;2023-07-09T02:43:53;17.90;99.90
44170;DHT22;29836;52.286;9.576;2023-07-09T02:46:19;17.90;99.90
44170;DHT22;29836;52.286;9.576;2023-07-09T02:48:44;17.90;99.90
44170;DHT22;29836;52.286;9.576;2023-07-09T02:51:10;17.90;99.90
44170;DHT22;29836;52.286;9.576;2023-07-09T02:53:35;17.80;99.90
44170;DHT22;29836;52.286;9.576;2023-07-09T02:56:01;17.80;99.90
44170;DHT22;29836;52.286;9.576;2023-07-09T02:58:26;17.70;99.90
44170;DHT22;29836;52.286;9.576;2023-07-09T03:00:52;17.60;99.90
44170;DHT22;29836;52.286;9.576;2023-07-09T03:03:19;17.70;99.90
44170;DHT22;29836;52.286;9.576;2023-07-09T03:05:45;17.50;99.90
44170;DHT22;29836;52.286;9.576;2023-07-09T03:08:11;17.60;99.90
44170;DHT22;29836;52.286;9.576;2023-07-09T03:10:37;17.60;99.90
44170;DHT22;29836;52.286;9.576;2023-07-09T03:13:03;17.50;99.90
44170;DHT22;29836;52.286;9.576;2023-07-09T03:15:30;17.50;99.90
44170;DHT22;29836;52.286;9.576;2023-07-09T03:17:55;17.50;99.90
44170;DHT22;29836;52.286;9.576;2023-07-09T03:20:21;17.60;99.90
44170;DHT22;29836;52.286;9.576;2023-07-09T03:22:46;17.50;99.90
44170;DHT22;29836;52.286;9.576;2023-07-09T03:25:12;17.40;99.90
44170;DHT22;29836;52.286;9.576;2023-07-09T03:27:37;17.30;99.90
44170;DHT22;29836;52.286;9.576;2023-07-09T03:30:03;17.20;99.90
44170;DHT22;29836;52.286;9.576;2023-07-09T03:32:30;17.10;99.90
44170;DHT22;29836;52.286;9.576;2023-07-09T03:34:55;17.10;99.90
44170;DHT22;29836;52.286;9.576;2023-07-09T03:37:21;17.00;99.90
44170;DHT22;29836;52.286;9.576;2023-07-09T03:39:46;17.10;99.90
44170;DHT22;29836;52.286;9.576;2023-07-09T03:42:12;17.10;99.90
44170;DHT22;29836;52.286;9.576;2023-07-09T03:44:37;17.20;99.90
44170;DHT22;29836;52.286;9.576;2023-07-09T03:47:03;17.20;99.90
44170;DHT22;29836;52.286;9.576;2023-07-09T03:49:29;17.30;99.90
44170;DHT22;29836;52.286;9.576;2023-07-09T03:51:54;17.30;99.90
44170;DHT22;29836;52.286;9.576;2023-07-09T03:54:20;17.40;99.90
44170;DHT22;29836;52.286;9.576;2023-07-09T03:56:45;17.40;99.90
44170;DHT22;29836;52.286;9.576;2023-07-09T03:59:11;17.40;99.90
44170;DHT22;29836;52.286;9.576;2023-07-09T04:01:36;17.40;99.90
44170;DHT22;29836;52.286;9.576;2023-07-09T04:04:02;17.40;99.90
44170;DHT22;29836;52.286;9.576;2023-07-09T04:06:28;17.30;99.90
44170;DHT22;29836;52.286;9.576;2023-07-09T04:08:54;17.30;99.90
44170;DHT22;29836;52.286;9.576;2023-07-09T04:11:19;17.30;99.90
44170;DHT22;29836;52.286;9.576;2023-07-09T04:13:45;17.30;99.90
44170;DHT22;29836;52.286;9.576;2023-07-09T04:16:11;17.30;99.90
44170;DHT22;29836;52.286;9.576;2023-07-09T04:18:37;17.30;99.90
44170;DHT22;29836;52.286;9.576;2023-07-09T04:21:03;17.40;99.90
44170;DHT22;29836;52.286;9.576;2023-07-09T04:23:29;17.30;99.90
44170;DHT22;29836;52.286;9.576;2023-07-09T04:25:54;17.40;99.90
44170;DHT22;29836;52.286;9.576;2023-07-09T04:28:20;17.40;99.90
44170;DHT22;29836;52.286;9.576;2023-07-09T04:30:50;17.50;99.90
44170;DHT22;29836;52.286;9.576;2023-07-09T04:33:17;17.50;99.90
44170;DHT22;29836;52.286;9.576;2023-07-09T04:35:45;17.50;99.90
44170;DHT22;29836;52.286;9.576;2023-07-09T04:38:11;17.60;99.90
44170;DHT22;29836;52.286;9.576;2023-07-09T04:40:37;17.60;99.90
44170;DHT22;29836;52.286;9.576;2023-07-09T04:43:02;17.60;99.90
44170;DHT22;29836;52.286;9.576;2023-07-09T04:45:28;17.60;99.90
44170;DHT22;29836;52.286;9.576;2023-07-09T04:47:53;17.70;99.90
44170;DHT22;29836;52.286;9.576;2023-07-09T04:50:19;17.70;99.90
44170;DHT22;29836;52.286;9.576;2023-07-09T04:52:44;17.70;99.90
44170;DHT22;29836;52.286;9.576;2023-07-09T04:55:10;17.70;99.90
44170;DHT22;29836;52.286;9.576;2023-07-09T04:57:35;17.80;99.90
44170;DHT22;29836;52.286;9.576;2023-07-09T05:00:01;17.70;99.90
44170;DHT22;29836;52.286;9.576;2023-07-09T05:02:29;17.80;99.90
44170;DHT22;29836;52.286;9.576;2023-07-09T05:04:55;17.80;99.90
44170;DHT22;29836;52.286;9.576;2023-07-09T05:07:21;17.80;99.90
44170;DHT22;29836;52.286;9.576;2023-07-09T05:09:46;17.90;99.90
44170;DHT22;29836;52.286;9.576;2023-07-09T05:12:12;17.90;99.90
44170;DHT22;29836;52.286;9.576;2023-07-09T05:14:38;17.90;99.90
44170;DHT22;29836;52.286;9.576;2023-07-09T05:17:04;18.00;99.90
44170;DHT22;29836;52.286;9.576;2023-07-09T05:19:30;18.00;99.90
44170;DHT22;29836;52.286;9.576;2023-07-09T05:21:56;18.20;99.90
44170;DHT22;29836;52.286;9.576;2023-07-09T05:24:21;18.20;99.90
44170;DHT22;29836;52.286;9.576;2023-07-09T05:26:47;18.30;99.90
44170;DHT22;29836;52.286;9.576;2023-07-09T05:29:12;18.40;99.90
44170;DHT22;29836;52.286;9.576;2023-07-09T05:31:38;18.50;99.90
44170;DHT22;29836;52.286;9.576;2023-07-09T05:34:04;18.60;99.90
44170;DHT22;29836;52.286;9.576;2023-07-09T05:36:30;18.70;99.90
44170;DHT22;29836;52.286;9.576;2023-07-09T05:38:56;18.80;99.90
44170;DHT22;29836;52.286;9.576;2023-07-09T05:41:21;19.00;99.90
44170;DHT22;29836;52.286;9.576;2023-07-09T05:43:50;19.10;99.90
44170;DHT22;29836;52.286;9.576;2023-07-09T05:46:16;19.20;99.90
44170;DHT22;29836;52.286;9.576;2023-07-09T05:48:42;19.30;99.90
44170;DHT22;29836;52.286;9.576;2023-07-09T05:51:07;19.40;99.90
44170;DHT22;29836;52.286;9.576;2023-07-09T05:53:33;19.50;99.90
44170;DHT22;29836;52.286;9.576;2023-07-09T05:55:58;19.60;99.90
44170;DHT22;29836;52.286;9.576;2023-07-09T05:58:24;19.70;99.90
44170;DHT22;29836;52.286;9.576;2023-07-09T06:00:54;19.80;99.90
44170;DHT22;29836;52.286;9.576;2023-07-09T06:03:23;19.80;99.90
44170;DHT22;29836;52.286;9.576;2023-07-09T06:05:49;20.00;99.90
44170;DHT22;29836;52.286;9.576;2023-07-09T06:08:15;20.10;99.90
44170;DHT22;29836;52.286;9.576;2023-07-09T06:10:53;20.20;99.90
44170;DHT22;29836;52.286;9.576;2023-07-09T06:13:20;20.30;99.90
44170;DHT22;29836;52.286;9.576;2023-07-09T06:15:47;20.40;99.90
44170;DHT22;29836;52.286;9.576;2023-07-09T06:18:13;20.60;99.90
44170;DHT22;29836;52.286;9.576;2023-07-09T06:20:39;20.70;99.90
44170;DHT22;29836;52.286;9.576;2023-07-09T06:23:04;20.70;99.90
44170;DHT22;29836;52.286;9.576;2023-07-09T06:25:30;20.80;99.90
44170;DHT22;29836;52.286;9.576;2023-07-09T06:27:57;20.80;99.90
44170;DHT22;29836;52.286;9.576;2023-07-09T06:30:23;20.90;99.90
44170;DHT22;29836;52.286;9.576;2023-07-09T06:32:48;21.00;99.90
44170;DHT22;29836;52.286;9.576;2023-07-09T06:35:14;21.10;99.90
44170;DHT22;29836;52.286;9.576;2023-07-09T06:37:39;21.10;99.90
44170;DHT22;29836;52.286;9.576;2023-07-09T06:40:06;21.20;99.90
44170;DHT22;29836;52.286;9.576;2023-07-09T06:42:34;21.20;99.90
44170;DHT22;29836;52.286;9.576;2023-07-09T06:44:59;21.30;99.90
44170;DHT22;29836;52.286;9.576;2023-07-09T06:47:25;21.40;99.90
44170;DHT22;29836;52.286;9.576;2023-07-09T06:49:51;21.60;99.90
44170;DHT22;29836;52.286;9.576;2023-07-09T06:52:16;21.70;99.90
44170;DHT22;29836;52.286;9.576;2023-07-09T06:54:42;21.80;99.90
44170;DHT22;29836;52.286;9.576;2023-07-09T06:57:07;22.00;99.90
44170;DHT22;29836;52.286;9.576;2023-07-09T06:59:33;22.10;99.90
44170;DHT22;29836;52.286;9.576;2023-07-09T07:01:58;22.30;99.90
44170;DHT22;29836;52.286;9.576;2023-07-09T07:04:26;22.40;99.90
44170;DHT22;29836;52.286;9.576;2023-07-09T07:06:52;22.50;99.90
44170;DHT22;29836;52.286;9.576;2023-07-09T07:09:18;22.60;99.90
44170;DHT22;29836;52.286;9.576;2023-07-09T07:11:43;22.80;99.90
44170;DHT22;29836;52.286;9.576;2023-07-09T07:14:09;23.00;99.90
44170;DHT22;29836;52.286;9.576;2023-07-09T07:16:34;23.20;99.90
44170;DHT22;29836;52.286;9.576;2023-07-09T07:19:00;23.40;99.90
44170;DHT22;29836;52.286;9.576;2023-07-09T07:21:25;23.50;99.90
44170;DHT22;29836;52.286;9.576;2023-07-09T07:23:51;23.60;99.90
44170;DHT22;29836;52.286;9.576;2023-07-09T07:26:16;23.70;99.90
44170;DHT22;29836;52.286;9.576;2023-07-09T07:28:42;23.90;99.90
44170;DHT22;29836;52.286;9.576;2023-07-09T07:31:08;23.90;99.90
44170;DHT22;29836;52.286;9.576;2023-07-09T07:33:35;24.00;99.90
44170;DHT22;29836;52.286;9.576;2023-07-09T07:36:03;24.00;99.90
44170;DHT22;29836;52.286;9.576;2023-07-09T07:38:28;24.10;99.90
44170;DHT22;29836;52.286;9.576;2023-07-09T07:40:54;24.20;99.90
44170;DHT22;29836;52.286;9.576;2023-07-09T07:43:19;24.30;99.90
44170;DHT22;29836;52.286;9.576;2023-07-09T07:45:45;24.40;99.90
44170;DHT22;29836;52.286;9.576;2023-07-09T07:48:12;24.50;99.90
44170;DHT22;29836;52.286;9.576;2023-07-09T07:50:39;24.50;99.90
44170;DHT22;29836;52.286;9.576;2023-07-09T07:53:06;24.70;99.90
44170;DHT22;29836;52.286;9.576;2023-07-09T07:55:33;24.80;99.90
44170;DHT22;29836;52.286;9.576;2023-07-09T07:57:59;24.90;99.90
44170;DHT22;29836;52.286;9.576;2023-07-09T08:00:28;25.10;99.90
44170;DHT22;29836;52.286;9.576;2023-07-09T08:02:53;25.20;99.90
44170;DHT22;29836;52.286;9.576;2023-07-09T08:05:19;25.30;98.80
44170;DHT22;29836;52.286;9.576;2023-07-09T08:07:45;25.50;99.90
44170;DHT22;29836;52.286;9.576;2023-07-09T08:10:12;25.60;99.90
44170;DHT22;29836;52.286;9.576;2023-07-09T08:12:38;25.70;99.90
44170;DHT22;29836;52.286;9.576;2023-07-09T08:15:04;25.80;99.90
44170;DHT22;29836;52.286;9.576;2023-07-09T08:17:31;25.90;99.90
44170;DHT22;29836;52.286;9.576;2023-07-09T08:19:57;26.00;99.70
44170;DHT22;29836;52.286;9.576;2023-07-09T08:22:22;26.20;98.60
44170;DHT22;29836;52.286;9.576;2023-07-09T08:24:48;26.20;97.80
44170;DHT22;29836;52.286;9.576;2023-07-09T08:27:14;26.30;96.70
44170;DHT22;29836;52.286;9.576;2023-07-09T08:29:40;26.30;98.30
44170;DHT22;29836;52.286;9.576;2023-07-09T08:32:08;26.30;98.90
44170;DHT22;29836;52.286;9.576;2023-07-09T08:34:34;26.40;99.30
44170;DHT22;29836;52.286;9.576;2023-07-09T08:37:00;26.50;99.30
44170;DHT22;29836;52.286;9.576;2023-07-09T08:39:25;26.60;99.00
44170;DHT22;29836;52.286;9.576;2023-07-09T08:41:57;26.70;98.20
44170;DHT22;29836;52.286;9.576;2023-07-09T08:47:41;27.00;97.50
44170;DHT22;29836;52.286;9.576;2023-07-09T08:50:22;27.20;97.60
44170;DHT22;29836;52.286;9.576;2023-07-09T08:52:51;27.40;96.60
44170;DHT22;29836;52.286;9.576;2023-07-09T08:55:20;27.50;97.50
44170;DHT22;29836;52.286;9.576;2023-07-09T08:57:55;27.70;96.00
44170;DHT22;29836;52.286;9.576;2023-07-09T09:00:29;27.80;94.80
44170;DHT22;29836;52.286;9.576;2023-07-09T09:03:00;28.00;94.90
44170;DHT22;29836;52.286;9.576;2023-07-09T09:05:30;28.20;94.00
44170;DHT22;29836;52.286;9.576;2023-07-09T09:08:03;28.30;95.60
44170;DHT22;29836;52.286;9.576;2023-07-09T09:10:39;28.30;94.60
44170;DHT22;29836;52.286;9.576;2023-07-09T09:13:13;28.30;95.00
44170;DHT22;29836;52.286;9.576;2023-07-09T09:15:43;28.40;95.20
44170;DHT22;29836;52.286;9.576;2023-07-09T09:18:29;28.50;93.70
44170;DHT22;29836;52.286;9.576;2023-07-09T09:21:07;28.60;94.60
44170;DHT22;29836;52.286;9.576;2023-07-09T09:23:43;28.70;94.10
44170;DHT22;29836;52.286;9.576;2023-07-09T09:29:15;29.50;93.20
44170;DHT22;29836;52.286;9.576;2023-07-09T09:31:43;30.10;91.80
44170;DHT22;29836;52.286;9.576;2023-07-09T09:34:21;30.60;92.50
44170;DHT22;29836;52.286;9.576;2023-07-09T09:36:48;31.20;91.60
44170;DHT22;29836;52.286;9.576;2023-07-09T09:39:13;31.60;91.30
44170;DHT22;29836;52.286;9.576;2023-07-09T09:41:39;32.00;86.90
44170;DHT22;29836;52.286;9.576;2023-07-09T09:44:05;32.40;88.90
44170;DHT22;29836;52.286;9.576;2023-07-09T09:46:32;32.80;87.40
44170;DHT22;29836;52.286;9.576;2023-07-09T09:49:02;33.10;88.00
44170;DHT22;29836;52.286;9.576;2023-07-09T09:51:33;33.50;86.70
44170;DHT22;29836;52.286;9.576;2023-07-09T09:54:01;33.80;84.60
44170;DHT22;29836;52.286;9.576;2023-07-09T09:56:34;34.00;81.50
44170;DHT22;29836;52.286;9.576;2023-07-09T09:59:01;34.10;83.50
44170;DHT22;29836;52.286;9.576;2023-07-09T10:01:30;34.10;81.70
44170;DHT22;29836;52.286;9.576;2023-07-09T10:03:58;34.20;82.80
44170;DHT22;29836;52.286;9.576;2023-07-09T10:06:41;34.20;80.00
44170;DHT22;29836;52.286;9.576;2023-07-09T10:09:25;34.30;80.30
44170;DHT22;29836;52.286;9.576;2023-07-09T10:14:49;34.10;78.40
44170;DHT22;29836;52.286;9.576;2023-07-09T10:17:26;33.90;79.70
44170;DHT22;29836;52.286;9.576;2023-07-09T10:20:23;34.20;77.70
44170;DHT22;29836;52.286;9.576;2023-07-09T10:23:07;34.30;77.90
44170;DHT22;29836;52.286;9.576;2023-07-09T10:25:38;34.30;78.10
44170;DHT22;29836;52.286;9.576;2023-07-09T10:34:01;34.60;75.30
44170;DHT22;29836;52.286;9.576;2023-07-09T10:39:27;34.80;75.70
44170;DHT22;29836;52.286;9.576;2023-07-09T10:41:57;34.90;77.50
44170;DHT22;29836;52.286;9.576;2023-07-09T10:44:41;35.00;78.70
44170;DHT22;29836;52.286;9.576;2023-07-09T10:47:27;35.20;75.80
44170;DHT22;29836;52.286;9.576;2023-07-09T10:49:54;35.40;76.00
44170;DHT22;29836;52.286;9.576;2023-07-09T10:52:33;35.50;75.20
44170;DHT22;29836;52.286;9.576;2023-07-09T10:55:12;35.50;74.10
44170;DHT22;29836;52.286;9.576;2023-07-09T10:57:48;35.60;73.10
44170;DHT22;29836;52.286;9.576;2023-07-09T11:00:25;35.50;74.00
44170;DHT22;29836;52.286;9.576;2023-07-09T11:03:02;35.60;73.70
44170;DHT22;29836;52.286;9.576;2023-07-09T11:05:29;35.70;71.80
44170;DHT22;29836;52.286;9.576;2023-07-09T11:08:10;35.60;72.40
44170;DHT22;29836;52.286;9.576;2023-07-09T11:10:41;35.50;72.30
44170;DHT22;29836;52.286;9.576;2023-07-09T11:13:20;35.40;73.90
44170;DHT22;29836;52.286;9.576;2023-07-09T11:15:49;35.40;72.40
44170;DHT22;29836;52.286;9.576;2023-07-09T11:18:31;35.30;75.10
44170;DHT22;29836;52.286;9.576;2023-07-09T11:21:15;35.40;73.30
44170;DHT22;29836;52.286;9.576;2023-07-09T11:23:53;35.20;71.40
44170;DHT22;29836;52.286;9.576;2023-07-09T11:26:26;35.20;73.40
44170;DHT22;29836;52.286;9.576;2023-07-09T11:29:15;35.30;72.30
44170;DHT22;29836;52.286;9.576;2023-07-09T11:31:44;35.30;75.10
44170;DHT22;29836;52.286;9.576;2023-07-09T11:39:30;35.00;71.60
44170;DHT22;29836;52.286;9.576;2023-07-09T11:41:57;35.10;72.90
44170;DHT22;29836;52.286;9.576;2023-07-09T11:44:27;35.10;72.30
44170;DHT22;29836;52.286;9.576;2023-07-09T11:50:03;35.10;72.60
44170;DHT22;29836;52.286;9.576;2023-07-09T11:52:45;35.20;70.60
44170;DHT22;29836;52.286;9.576;2023-07-09T11:57:53;35.10;73.00
44170;DHT22;29836;52.286;9.576;2023-07-09T12:00:18;35.30;70.50
44170;DHT22;29836;52.286;9.576;2023-07-09T12:02:44;35.40;72.00
44170;DHT22;29836;52.286;9.576;2023-07-09T12:05:10;35.60;71.10
44170;DHT22;29836;52.286;9.576;2023-07-09T12:07:36;35.60;69.90
44170;DHT22;29836;52.286;9.576;2023-07-09T12:10:03;35.70;69.10
44170;DHT22;29836;52.286;9.576;2023-07-09T12:12:53;35.60;69.10
44170;DHT22;29836;52.286;9.576;2023-07-09T12:15:21;35.60;69.80
44170;DHT22;29836;52.286;9.576;2023-07-09T12:17:59;35.40;67.80
44170;DHT22;29836;52.286;9.576;2023-07-09T12:20:26;35.30;68.70
44170;DHT22;29836;52.286;9.576;2023-07-09T12:22:54;35.10;70.30
44170;DHT22;29836;52.286;9.576;2023-07-09T12:25:23;34.90;67.80
44170;DHT22;29836;52.286;9.576;2023-07-09T12:27:49;34.90;71.10
44170;DHT22;29836;52.286;9.576;2023-07-09T12:30:16;34.80;72.30
44170;DHT22;29836;52.286;9.576;2023-07-09T12:32:49;34.90;70.00
44170;DHT22;29836;52.286;9.576;2023-07-09T12:35:16;34.80;72.30
44170;DHT22;29836;52.286;9.576;2023-07-09T12:37:43;34.80;69.40
44170;DHT22;29836;52.286;9.576;2023-07-09T12:40:15;34.80;67.10
44170;DHT22;29836;52.286;9.576;2023-07-09T12:42:43;34.60;67.60
44170;DHT22;29836;52.286;9.576;2023-07-09T12:45:17;34.60;69.20
44170;DHT22;29836;52.286;9.576;2023-07-09T12:47:45;34.60;68.60
44170;DHT22;29836;52.286;9.576;2023-07-09T12:50:35;34.60;65.50
44170;DHT22;29836;52.286;9.576;2023-07-09T12:53:03;34.50;69.10
44170;DHT22;29836;52.286;9.576;2023-07-09T12:55:40;34.40;67.90
44170;DHT22;29836;52.286;9.576;2023-07-09T12:58:10;34.40;68.80
44170;DHT22;29836;52.286;9.576;2023-07-09T13:00:36;34.40;70.50
44170;DHT22;29836;52.286;9.576;2023-07-09T13:03:02;34.40;70.30
44170;DHT22;29836;52.286;9.576;2023-07-09T13:05:28;34.40;70.00
44170;DHT22;29836;52.286;9.576;2023-07-09T13:08:01;34.40;67.10
44170;DHT22;29836;52.286;9.576;2023-07-09T13:10:32;34.40;66.20
44170;DHT22;29836;52.286;9.576;2023-07-09T13:13:04;34.20;68.70
44170;DHT22;29836;52.286;9.576;2023-07-09T13:15:39;34.20;68.80
44170;DHT22;29836;52.286;9.576;2023-07-09T13:18:08;34.10;65.90
44170;DHT22;29836;52.286;9.576;2023-07-09T13:20:41;34.10;67.10
44170;DHT22;29836;52.286;9.576;2023-07-09T13:23:16;34.00;66.30
44170;DHT22;29836;52.286;9.576;2023-07-09T13:25:42;34.00;67.10
44170;DHT22;29836;52.286;9.576;2023-07-09T13:28:29;34.00;68.10
44170;DHT22;29836;52.286;9.576;2023-07-09T13:31:11;34.00;66.40
44170;DHT22;29836;52.286;9.576;2023-07-09T13:33:38;34.10;65.90
44170;DHT22;29836;52.286;9.576;2023-07-09T13:36:04;34.00;67.50
44170;DHT22;29836;52.286;9.576;2023-07-09T13:38:30;34.00;67.30
44170;DHT22;29836;52.286;9.576;2023-07-09T13:40:59;34.10;68.40
44170;DHT22;29836;52.286;9.576;2023-07-09T13:43:30;34.10;67.50
44170;DHT22;29836;52.286;9.576;2023-07-09T13:45:57;34.10;65.40
44170;DHT22;29836;52.286;9.576;2023-07-09T13:48:23;34.10;67.00
44170;DHT22;29836;52.286;9.576;2023-07-09T13:50:50;34.00;67.80
44170;DHT22;29836;52.286;9.576;2023-07-09T13:53:25;34.00;67.40
44170;DHT22;29836;52.286;9.576;2023-07-09T13:55:52;33.90;69.10
44170;DHT22;29836;52.286;9.576;2023-07-09T13:58:20;33.80;66.10
44170;DHT22;29836;52.286;9.576;2023-07-09T14:00:47;33.80;66.90
44170;DHT22;29836;52.286;9.576;2023-07-09T14:03:22;33.70;69.60
44170;DHT22;29836;52.286;9.576;2023-07-09T14:05:48;33.60;67.40
44170;DHT22;29836;52.286;9.576;2023-07-09T14:08:13;33.40;67.40
44170;DHT22;29836;52.286;9.576;2023-07-09T14:10:39;33.30;68.60
44170;DHT22;29836;52.286;9.576;2023-07-09T14:13:08;33.30;69.50
44170;DHT22;29836;52.286;9.576;2023-07-09T14:15:34;33.40;68.60
44170;DHT22;29836;52.286;9.576;2023-07-09T14:17:59;33.50;70.40
44170;DHT22;29836;52.286;9.576;2023-07-09T14:20:25;33.40;69.30
44170;DHT22;29836;52.286;9.576;2023-07-09T14:22:51;33.50;72.60
44170;DHT22;29836;52.286;9.576;2023-07-09T14:25:20;33.40;71.60
44170;DHT22;29836;52.286;9.576;2023-07-09T14:27:47;33.30;69.70
44170;DHT22;29836;52.286;9.576;2023-07-09T14:30:15;33.20;72.00
44170;DHT22;29836;52.286;9.576;2023-07-09T14:32:41;32.90;69.90
44170;DHT22;29836;52.286;9.576;2023-07-09T14:35:22;32.60;69.20
44170;DHT22;29836;52.286;9.576;2023-07-09T14:37:50;32.80;71.30
44170;DHT22;29836;52.286;9.576;2023-07-09T14:40:17;32.90;67.50
44170;DHT22;29836;52.286;9.576;2023-07-09T14:42:44;32.90;71.40
44170;DHT22;29836;52.286;9.576;2023-07-09T14:45:19;32.90;69.70
44170;DHT22;29836;52.286;9.576;2023-07-09T14:47:45;33.00;73.40
44170;DHT22;29836;52.286;9.576;2023-07-09T14:50:11;33.10;68.60
44170;DHT22;29836;52.286;9.576;2023-07-09T14:52:37;33.10;70.60
44170;DHT22;29836;52.286;9.576;2023-07-09T14:55:04;33.10;70.00
44170;DHT22;29836;52.286;9.576;2023-07-09T14:57:29;33.10;68.50
44170;DHT22;29836;52.286;9.576;2023-07-09T14:59:56;33.00;71.00
44170;DHT22;29836;52.286;9.576;2023-07-09T15:02:36;33.10;70.60
44170;DHT22;29836;52.286;9.576;2023-07-09T15:05:05;33.00;71.80
44170;DHT22;29836;52.286;9.576;2023-07-09T15:07:35;32.90;72.50
44170;DHT22;29836;52.286;9.576;2023-07-09T15:10:01;32.90;69.60
44170;DHT22;29836;52.286;9.576;2023-07-09T15:12:34;32.90;70.10
44170;DHT22;29836;52.286;9.576;2023-07-09T15:15:23;32.90;72.30
44170;DHT22;29836;52.286;9.576;2023-07-09T15:17:50;32.70;72.20
44170;DHT22;29836;52.286;9.576;2023-07-09T15:20:17;32.60;72.90
44170;DHT22;29836;52.286;9.576;2023-07-09T15:22:44;32.60;71.70
44170;DHT22;29836;52.286;9.576;2023-07-09T15:25:16;32.50;71.60
44170;DHT22;29836;52.286;9.576;2023-07-09T15:27:43;32.60;73.10
44170;DHT22;29836;52.286;9.576;2023-07-09T15:30:29;32.60;71.20
44170;DHT22;29836;52.286;9.576;2023-07-09T15:32:57;32.60;71.20
44170;DHT22;29836;52.286;9.576;2023-07-09T15:35:31;32.70;71.30
44170;DHT22;29836;52.286;9.576;2023-07-09T15:37:57;32.70;72.90
44170;DHT22;29836;52.286;9.576;2023-07-09T15:40:25;32.80;72.50
44170;DHT22;29836;52.286;9.576;2023-07-09T15:42:56;32.70;72.30
44170;DHT22;29836;52.286;9.576;2023-07-09T15:45:23;32.60;71.90
44170;DHT22;29836;52.286;9.576;2023-07-09T15:47:50;32.50;68.90
44170;DHT22;29836;52.286;9.576;2023-07-09T15:50:26;32.50;70.30
44170;DHT22;29836;52.286;9.576;2023-07-09T15:52:52;32.40;74.90
44170;DHT22;29836;52.286;9.576;2023-07-09T15:55:20;32.30;73.40
44170;DHT22;29836;52.286;9.576;2023-07-09T15:57:49;32.20;70.30
44170;DHT22;29836;52.286;9.576;2023-07-09T16:00:21;32.10;73.70
44170;DHT22;29836;52.286;9.576;2023-07-09T16:02:48;32.00;73.20
44170;DHT22;29836;52.286;9.576;2023-07-09T16:05:21;31.80;75.70
44170;DHT22;29836;52.286;9.576;2023-07-09T16:07:49;31.70;74.20
44170;DHT22;29836;52.286;9.576;2023-07-09T16:10:15;31.60;74.10
44170;DHT22;29836;52.286;9.576;2023-07-09T16:12:40;31.50;74.00